Time;durP1;ratioP1;P1;durP2;ratioP2;P2;SDS_P1;SDS_P2;PMS_P1;PMS_P2;Temp;Humidity;BMP_temperature;BMP_pressure;BME280_temperature;BME280_humidity;BME280_pressure;Samples;Min_cycle;Max_cycle;Signal;HPM_P1;HPM_P2
2023/12/09 00:02:28;;;;;;;52.40;28.13;;;3.10;99.90;;;2.37;100.00;97775.06;5047158;28;20456;-77
2023/12/09 00:04:55;;;;;;;53.47;28.43;;;3.10;99.90;;;2.51;100.00;97771.72;5044584;28;20450;-77
2023/12/09 00:07:24;;;;;;;53.00;28.80;;;3.10;99.90;;;2.51;100.00;97785.06;5041617;28;20982;-76
2023/12/09 00:09:51;;;;;;;50.20;27.90;;;3.10;99.90;;;2.55;100.00;97770.38;5048523;28;20462;-75
2023/12/09 00:12:18;;;;;;;44.40;27.00;;;3.10;99.90;;;2.61;100.00;97768.00;5056104;28;20467;-79
2023/12/09 00:14:46;;;;;;;56.50;29.57;;;3.10;99.90;;;2.43;100.00;97765.53;5045641;28;20554;-77
2023/12/09 00:17:14;;;;;;;55.33;27.50;;;3.10;99.90;;;2.41;100.00;97755.06;5044369;28;20450;-76
2023/12/09 00:19:41;;;;;;;51.07;27.27;;;3.10;99.90;;;2.43;100.00;97770.88;5051429;28;20467;-78
2023/12/09 00:22:10;;;;;;;51.27;27.40;;;3.10;99.90;;;2.59;100.00;97767.34;5046319;28;20802;-76
2023/12/09 00:24:38;;;;;;;54.03;27.87;;;3.10;99.90;;;2.35;100.00;97761.06;5048419;28;20563;-76
2023/12/09 00:27:05;;;;;;;49.10;26.83;;;3.00;99.90;;;2.40;100.00;97764.06;5046250;28;20469;-76
2023/12/09 00:29:33;;;;;;;51.93;27.70;;;3.00;99.90;;;2.23;100.00;97737.44;5059076;28;20477;-77
2023/12/09 00:32:00;;;;;;;50.53;27.90;;;3.00;99.90;;;2.39;100.00;97765.06;5056621;28;20470;-76
2023/12/09 00:34:27;;;;;;;58.07;28.30;;;3.00;99.90;;;2.34;100.00;97762.06;5055240;28;20482;-76
2023/12/09 00:36:55;;;;;;;50.27;29.30;;;3.00;99.90;;;2.22;100.00;97738.44;5061398;28;20979;-75
2023/12/09 00:39:22;;;;;;;50.60;25.57;;;3.00;99.90;;;1.87;100.00;97681.81;5059993;28;20953;-76
2023/12/09 00:41:52;;;;;;;49.67;27.17;;;3.00;99.90;;;2.31;100.00;97747.25;5051998;28;20475;-76
2023/12/09 00:44:20;;;;;;;52.83;27.50;;;3.00;99.90;;;2.42;100.00;97764.72;5052685;28;20450;-76
2023/12/09 00:46:48;;;;;;;45.13;26.27;;;3.00;99.90;;;2.39;100.00;97754.41;5046488;28;20507;-76
2023/12/09 00:49:16;;;;;;;50.27;25.77;;;3.00;99.90;;;2.50;100.00;97767.38;5063910;28;21723;-77
2023/12/09 00:51:43;;;;;;;41.27;22.83;;;3.10;99.90;;;2.41;100.00;97768.41;5046673;28;20994;-76
2023/12/09 00:54:10;;;;;;;47.67;24.40;;;3.00;99.90;;;2.60;100.00;97771.69;5049254;28;20465;-77
2023/12/09 00:56:38;;;;;;;44.10;25.17;;;3.10;99.90;;;2.62;100.00;97769.69;5039192;28;20460;-75
2023/12/09 00:59:07;;;;;;;49.70;24.57;;;3.20;99.90;;;2.52;100.00;97777.88;5045824;28;20462;-76
2023/12/09 01:01:34;;;;;;;47.97;25.50;;;3.10;99.90;;;2.39;100.00;97775.72;5046674;28;20515;-77
2023/12/09 01:04:03;;;;;;;49.77;26.27;;;3.10;99.90;;;2.38;100.00;97780.22;5058963;28;20463;-77
2023/12/09 01:06:30;;;;;;;50.17;25.57;;;3.10;99.90;;;2.39;100.00;97781.06;5047039;28;20459;-75
2023/12/09 01:08:57;;;;;;;46.70;26.93;;;3.10;99.90;;;2.45;100.00;97790.22;5046510;28;20454;-78
2023/12/09 01:11:25;;;;;;;51.50;26.07;;;3.10;99.90;;;2.39;100.00;97791.72;5046953;28;20452;-76
2023/12/09 01:13:53;;;;;;;47.37;25.77;;;3.00;99.90;;;2.35;100.00;97801.91;5043821;28;20853;-76
2023/12/09 01:16:22;;;;;;;46.40;25.10;;;3.00;99.90;;;2.35;100.00;97774.38;5042387;28;20450;-77
2023/12/09 01:18:49;;;;;;;49.07;24.70;;;3.10;99.90;;;2.55;100.00;97802.38;5043750;28;20469;-75
2023/12/09 01:21:17;;;;;;;52.53;25.50;;;3.10;99.90;;;2.40;100.00;97788.88;5046505;28;20546;-75
2023/12/09 01:23:44;;;;;;;47.97;25.00;;;3.10;99.90;;;2.36;100.00;97784.06;5043214;28;20449;-75
2023/12/09 01:26:11;;;;;;;46.70;26.30;;;3.10;99.90;;;2.37;100.00;97780.41;5044882;28;20871;-74
2023/12/09 01:28:39;;;;;;;52.50;26.80;;;3.10;99.90;;;2.31;100.00;97778.41;5048943;28;20467;-75
2023/12/09 01:31:07;;;;;;;50.10;25.00;;;3.10;99.90;;;2.53;100.00;97798.19;5043396;28;20459;-74
2023/12/09 01:33:37;;;;;;;48.27;23.80;;;3.10;99.90;;;2.50;100.00;97802.06;5044055;28;20461;-74
2023/12/09 01:36:05;;;;;;;45.03;24.13;;;3.10;99.90;;;1.96;100.00;97739.44;5044480;28;20461;-74
2023/12/09 01:38:33;;;;;;;52.67;25.70;;;3.10;99.90;;;2.54;100.00;97803.38;5044169;28;20563;-76
2023/12/09 01:41:01;;;;;;;44.13;23.43;;;3.10;99.90;;;2.51;100.00;97811.72;5044412;28;21006;-75
2023/12/09 01:43:28;;;;;;;48.27;24.70;;;3.10;99.90;;;2.32;100.00;97807.56;5035323;28;20517;-75
2023/12/09 01:46:06;;;;;;;46.30;25.20;;;3.00;99.90;;;2.35;100.00;97812.56;5042312;28;20462;-76
2023/12/09 01:48:33;;;;;;;43.20;21.87;;;3.00;99.90;;;2.36;100.00;97813.41;5043803;28;20535;-77
2023/12/09 01:51:04;;;;;;;49.17;25.17;;;3.00;99.90;;;2.35;100.00;97803.72;5047010;28;20536;-75
2023/12/09 01:53:31;;;;;;;50.43;25.47;;;3.00;99.90;;;2.31;100.00;97805.06;5046453;28;20474;-77
2023/12/09 01:56:03;;;;;;;48.23;23.67;;;3.00;99.90;;;2.32;100.00;97812.06;5049242;28;20886;-74
2023/12/09 01:58:30;;;;;;;55.07;24.07;;;2.90;99.90;;;2.35;100.00;97775.22;5043739;28;20459;-76
2023/12/09 02:00:58;;;;;;;54.30;23.87;;;3.00;99.90;;;2.38;100.00;97801.56;5044858;28;20754;-75
2023/12/09 02:03:26;;;;;;;49.27;23.77;;;3.00;99.90;;;2.09;100.00;97775.44;5045549;28;20449;-77
2023/12/09 02:05:53;;;;;;;50.20;26.17;;;3.00;99.90;;;2.32;100.00;97806.72;5046941;28;20442;-76
2023/12/09 02:08:22;;;;;;;53.80;25.23;;;3.00;99.90;;;2.57;100.00;97801.38;5044340;28;20456;-76
2023/12/09 02:11:00;;;;;;;46.40;23.77;;;3.00;99.90;;;2.12;100.00;97749.28;5044768;28;20956;-75
2023/12/09 02:13:41;;;;;;;50.70;21.67;;;3.10;99.90;;;2.46;100.00;97818.56;5056306;28;20850;-77
2023/12/09 02:16:16;;;;;;;48.80;25.80;;;3.00;99.90;;;2.45;100.00;97816.91;5042624;28;20448;-75
2023/12/09 02:18:45;;;;;;;52.87;23.97;;;3.10;99.90;;;2.67;100.00;97810.03;5049431;28;21360;-76
2023/12/09 02:21:12;;;;;;;50.80;23.60;;;3.20;99.90;;;2.63;100.00;97808.69;5043038;28;20440;-76
2023/12/09 02:23:41;;;;;;;51.00;26.43;;;3.20;99.90;;;2.32;100.00;97817.38;5045141;28;20451;-77
2023/12/09 02:26:14;;;;;;;58.33;26.00;;;3.10;99.90;;;2.38;100.00;97812.22;5044429;28;20498;-76
2023/12/09 02:28:50;;;;;;;49.00;24.47;;;3.00;99.90;;;2.31;100.00;97815.72;5041967;28;20462;-76
2023/12/09 02:31:24;;;;;;;52.37;24.60;;;3.10;99.90;;;2.31;100.00;97815.72;5040212;28;20463;-76
2023/12/09 02:33:52;;;;;;;56.30;25.33;;;3.00;99.90;;;2.49;100.00;97812.88;5050519;28;20538;-76
2023/12/09 02:36:22;;;;;;;56.90;26.63;;;3.10;99.90;;;2.48;100.00;97817.38;5039278;28;20454;-76
2023/12/09 02:38:52;;;;;;;56.53;27.00;;;3.20;99.90;;;2.53;100.00;97820.38;5047328;28;20454;-75
2023/12/09 02:41:21;;;;;;;50.43;25.47;;;3.10;99.90;;;2.66;100.00;97819.03;5044579;28;20524;-74
2023/12/09 02:43:48;;;;;;;49.80;24.57;;;3.20;99.90;;;2.60;100.00;97825.88;5044463;28;20541;-75
2023/12/09 02:46:16;;;;;;;53.23;23.97;;;3.20;99.90;;;2.43;100.00;97825.06;5046616;28;20965;-75
2023/12/09 02:48:43;;;;;;;54.50;23.97;;;3.20;99.90;;;2.41;100.00;97827.06;5047045;28;20467;-77
2023/12/09 02:51:12;;;;;;;44.40;23.80;;;3.10;99.90;;;2.57;100.00;97825.38;5047852;28;21038;-76
2023/12/09 02:53:38;;;;;;;59.67;24.70;;;3.20;99.90;;;2.67;100.00;97824.19;5049585;28;20466;-76
2023/12/09 02:56:09;;;;;;;48.27;23.87;;;3.20;99.90;;;2.53;100.00;97825.72;5048789;28;20975;-78
2023/12/09 02:58:37;;;;;;;51.30;25.90;;;3.20;99.90;;;2.61;100.00;97832.03;5045024;28;20880;-77
2023/12/09 03:01:05;;;;;;;49.93;23.57;;;3.20;99.90;;;2.65;100.00;97833.34;5044515;28;20522;-76
2023/12/09 03:03:32;;;;;;;46.50;24.23;;;3.20;99.90;;;2.72;100.00;97845.03;5045461;28;20447;-77
2023/12/09 03:06:00;;;;;;;56.70;24.30;;;3.30;99.90;;;2.72;100.00;97845.03;5050293;28;21109;-76
2023/12/09 03:08:27;;;;;;;44.73;22.63;;;3.30;99.90;;;2.69;100.00;97840.03;5048698;28;20467;-75
2023/12/09 03:10:54;;;;;;;36.83;21.00;;;3.30;99.90;;;2.75;100.00;97843.88;5046162;28;20851;-77
2023/12/09 03:13:25;;;;;;;47.80;23.43;;;3.30;99.90;;;2.77;100.00;97834.66;5050264;28;20462;-78
2023/12/09 03:15:52;;;;;;;46.80;22.37;;;3.30;99.90;;;2.87;100.00;97837.16;5067054;28;20495;-75
2023/12/09 03:18:19;;;;;;;38.37;21.43;;;3.40;99.90;;;2.91;100.00;97842.97;5054455;28;20465;-74
2023/12/09 03:20:47;;;;;;;38.67;21.30;;;3.40;99.90;;;2.90;100.00;97846.66;5055624;28;20445;-77
2023/12/09 03:23:14;;;;;;;39.43;21.20;;;3.40;99.90;;;2.29;100.00;97754.59;5047526;28;20475;-76
2023/12/09 03:25:42;;;;;;;36.50;20.63;;;3.40;99.90;;;2.93;100.00;97847.16;5047952;28;20442;-74
2023/12/09 03:28:09;;;;;;;38.80;21.80;;;3.50;99.90;;;2.98;100.00;97843.97;5049544;28;20457;-74
2023/12/09 03:30:37;;;;;;;40.53;20.80;;;3.50;99.90;;;2.86;100.00;97840.00;5048599;28;20479;-74
2023/12/09 03:33:05;;;;;;;44.77;21.40;;;3.40;99.90;;;2.90;100.00;97830.66;5045349;28;20576;-74
2023/12/09 03:35:32;;;;;;;47.47;21.43;;;3.50;99.90;;;2.93;100.00;97843.63;5047161;28;20515;-76
2023/12/09 03:38:00;;;;;;;42.60;21.10;;;3.50;99.90;;;2.98;100.00;97843.97;5048684;28;20554;-76
2023/12/09 03:40:27;;;;;;;41.97;22.90;;;3.50;99.90;;;2.91;100.00;97837.66;5063852;28;20442;-75
2023/12/09 03:42:54;;;;;;;38.67;22.00;;;3.50;99.90;;;2.88;100.00;97833.50;5043289;28;20528;-75
2023/12/09 03:45:22;;;;;;;35.07;20.20;;;3.50;99.90;;;2.75;100.00;97827.84;5056876;28;20583;-75
2023/12/09 03:47:51;;;;;;;42.37;21.53;;;3.40;99.90;;;2.72;100.00;97817.50;5047694;28;20795;-73
2023/12/09 03:50:18;;;;;;;37.43;21.27;;;3.40;99.90;;;2.75;100.00;97817.19;5048238;28;20446;-75
2023/12/09 03:52:46;;;;;;;38.57;20.70;;;3.40;99.90;;;2.66;100.00;97821.72;5047390;28;21157;-74
2023/12/09 03:55:15;;;;;;;37.27;21.17;;;3.40;99.90;;;2.65;100.00;97818.19;5052838;28;20545;-75
2023/12/09 03:57:43;;;;;;;40.67;20.20;;;3.30;99.90;;;2.61;100.00;97816.88;5047348;28;20455;-75
2023/12/09 04:00:12;;;;;;;39.40;20.77;;;3.30;99.90;;;2.28;100.00;97781.41;5047224;28;20568;-74
2023/12/09 04:02:39;;;;;;;37.40;20.23;;;3.20;99.90;;;2.49;100.00;97802.22;5042472;28;20542;-74
2023/12/09 04:05:10;;;;;;;37.10;19.57;;;3.20;99.90;;;2.69;100.00;97810.69;5053907;28;20446;-75
2023/12/09 04:07:37;;;;;;;39.63;20.47;;;3.20;99.90;;;2.81;100.00;97806.66;5048831;28;20459;-74
2023/12/09 04:10:06;;;;;;;41.63;22.47;;;3.30;99.90;;;2.59;100.00;97791.38;5063596;28;20530;-74
2023/12/09 04:12:34;;;;;;;38.03;21.27;;;3.30;99.90;;;2.61;100.00;97790.19;5048738;28;20550;-76
2023/12/09 04:15:03;;;;;;;42.67;23.90;;;3.30;99.90;;;2.55;100.00;97797.03;5045828;28;21056;-74
2023/12/09 04:17:31;;;;;;;45.03;23.57;;;3.30;99.90;;;2.52;100.00;97799.22;5047558;28;20454;-74
2023/12/09 04:19:58;;;;;;;39.23;21.70;;;3.20;99.90;;;2.47;100.00;97796.22;5045781;28;21230;-75
2023/12/09 04:22:28;;;;;;;35.20;20.13;;;3.20;99.90;;;2.61;100.00;97773.34;5045883;28;20465;-76
2023/12/09 04:24:55;;;;;;;37.50;21.60;;;3.30;99.90;;;2.76;100.00;97813.50;5045922;28;20458;-76
2023/12/09 04:27:22;;;;;;;40.73;20.93;;;3.30;99.90;;;2.63;100.00;97787.34;5046324;28;20460;-77
2023/12/09 04:29:51;;;;;;;42.93;22.60;;;3.30;99.90;;;2.68;100.00;97790.34;5045756;28;20461;-76
2023/12/09 04:32:18;;;;;;;38.77;20.87;;;3.30;99.90;;;2.52;100.00;97789.38;5038615;28;20566;-77
2023/12/09 04:34:46;;;;;;;40.47;22.00;;;3.20;99.90;;;2.41;100.00;97763.88;5047296;28;20482;-75
2023/12/09 04:37:13;;;;;;;43.03;22.33;;;3.20;99.90;;;2.58;100.00;97789.69;5047812;28;20517;-75
2023/12/09 04:39:42;;;;;;;39.80;21.30;;;3.30;99.90;;;2.50;100.00;97791.41;5046389;28;21135;-75
2023/12/09 04:42:10;;;;;;;34.90;20.50;;;3.20;99.90;;;2.60;100.00;97787.69;5043493;28;20541;-75
2023/12/09 04:44:37;;;;;;;33.83;20.27;;;3.20;99.90;;;2.65;100.00;97801.34;5046087;28;21047;-77
2023/12/09 04:47:06;;;;;;;42.27;21.70;;;3.20;99.90;;;2.71;100.00;97794.50;5046766;28;20456;-74
2023/12/09 04:49:33;;;;;;;41.73;21.00;;;3.30;99.90;;;2.63;100.00;97809.53;5039545;28;20477;-75
2023/12/09 04:52:00;;;;;;;38.50;20.53;;;3.30;99.90;;;2.63;100.00;97798.00;5056892;28;20785;-75
2023/12/09 04:54:28;;;;;;;43.23;19.30;;;3.30;99.90;;;2.54;100.00;97800.72;5046609;28;20476;-75
2023/12/09 04:56:56;;;;;;;37.63;19.93;;;3.30;99.90;;;2.50;100.00;97782.53;5044281;28;20450;-76
2023/12/09 04:59:24;;;;;;;43.53;20.97;;;3.20;99.90;;;2.68;100.00;97791.16;5043870;28;20893;-75
2023/12/09 05:01:52;;;;;;;36.20;21.03;;;3.20;99.90;;;2.72;100.00;97778.31;5040376;28;21024;-76
2023/12/09 05:04:19;;;;;;;39.93;20.57;;;3.30;99.90;;;2.36;100.00;97712.09;5045772;28;20468;-75
2023/12/09 05:06:47;;;;;;;37.90;20.33;;;3.30;99.90;;;2.72;100.00;97783.66;5043100;28;21044;-76
2023/12/09 05:09:15;;;;;;;32.10;19.20;;;3.30;99.90;;;2.68;100.00;97791.16;5044486;28;20451;-77
2023/12/09 05:11:43;;;;;;;34.87;18.67;;;3.30;99.90;;;2.74;100.00;97792.31;5055606;28;21051;-76
2023/12/09 05:14:11;;;;;;;34.87;19.70;;;3.30;99.90;;;2.68;100.00;97798.34;5061132;28;20936;-75
2023/12/09 05:16:38;;;;;;;33.63;17.33;;;3.30;99.90;;;2.69;100.00;97797.34;5044407;28;20580;-76
2023/12/09 05:19:06;;;;;;;41.40;20.77;;;3.30;99.90;;;2.66;100.00;97803.03;5043455;28;20513;-75
2023/12/09 05:21:34;;;;;;;37.67;20.33;;;3.30;99.90;;;2.61;100.00;97794.69;5062785;28;20460;-74
2023/12/09 05:24:02;;;;;;;41.27;20.23;;;3.30;99.90;;;2.64;100.00;97795.19;5055980;28;20816;-74
2023/12/09 05:26:30;;;;;;;33.50;18.70;;;3.30;99.90;;;2.78;100.00;97796.31;5043029;28;20541;-75
2023/12/09 05:28:58;;;;;;;35.43;18.57;;;3.30;99.90;;;2.76;100.00;97798.31;5045501;28;20468;-75
2023/12/09 05:31:27;;;;;;;35.27;20.07;;;3.40;99.90;;;2.76;100.00;97784.16;5044542;28;20479;-75
2023/12/09 05:33:54;;;;;;;41.80;20.63;;;3.40;99.90;;;2.51;100.00;97790.38;5045345;28;21242;-74
2023/12/09 05:36:22;;;;;;;35.87;19.97;;;3.30;99.90;;;2.37;100.00;97777.75;5045890;28;20502;-75
2023/12/09 05:38:49;;;;;;;37.80;19.33;;;3.20;99.90;;;2.68;100.00;97795.69;5045478;28;20540;-75
2023/12/09 05:41:17;;;;;;;41.63;18.67;;;3.30;99.90;;;2.72;100.00;97796.16;5046075;28;20451;-76
2023/12/09 05:43:44;;;;;;;36.83;19.50;;;3.30;99.90;;;2.79;100.00;97795.31;5047567;28;20441;-75
2023/12/09 05:46:19;;;;;;;32.20;18.30;;;3.40;99.90;;;2.79;100.00;97792.63;5045669;28;21450;-74
2023/12/09 05:48:48;;;;;;;34.70;20.00;;;3.40;99.90;;;2.72;100.00;97797.00;5045437;28;20530;-75
2023/12/09 05:51:15;;;;;;;36.60;20.33;;;3.40;99.90;;;2.74;100.00;97805.66;5043854;28;20467;-75
2023/12/09 05:53:43;;;;;;;38.77;21.67;;;3.50;99.90;;;2.77;100.00;97791.97;5059154;28;20628;-76
2023/12/09 05:56:11;;;;;;;42.40;20.90;;;3.40;99.90;;;2.88;100.00;97801.47;5046438;28;21000;-74
2023/12/09 05:58:39;;;;;;;38.93;20.00;;;3.50;99.90;;;2.76;100.00;97803.66;5039852;28;20607;-77
2023/12/09 06:01:08;;;;;;;35.33;19.90;;;3.50;99.90;;;2.72;100.00;97786.34;5041870;28;20461;-75
2023/12/09 06:03:35;;;;;;;35.43;18.80;;;3.50;99.90;;;2.79;100.00;97802.50;5062193;28;20923;-76
2023/12/09 06:06:04;;;;;;;37.90;19.67;;;3.40;99.90;;;2.73;100.00;97803.16;5046921;28;20743;-74
2023/12/09 06:08:32;;;;;;;36.80;19.30;;;3.40;99.90;;;2.74;100.00;97800.31;5050785;28;20452;-76
2023/12/09 06:10:59;;;;;;;34.70;18.50;;;3.40;99.90;;;2.62;100.00;97796.34;5056850;28;20450;-74
2023/12/09 06:13:27;;;;;;;46.80;22.70;;;3.40;99.90;;;2.69;100.00;97784.00;5070315;28;20974;-75
2023/12/09 06:15:55;;;;;;;42.10;19.93;;;3.40;99.90;;;2.74;100.00;97789.66;5056967;28;20516;-75
2023/12/09 06:18:22;;;;;;;39.07;19.90;;;3.40;99.90;;;2.76;100.00;97792.97;5044959;28;20936;-75
2023/12/09 06:20:49;;;;;;;41.27;20.70;;;3.40;99.90;;;2.70;100.00;97804.34;5043225;28;20455;-74
2023/12/09 06:23:18;;;;;;;37.77;20.80;;;3.40;99.90;;;2.69;100.00;97776.81;5057675;28;20980;-75
2023/12/09 06:25:45;;;;;;;38.17;20.30;;;3.50;99.90;;;2.79;100.00;97797.97;5043778;28;20456;-74
2023/12/09 06:28:13;;;;;;;40.80;19.77;;;3.40;99.90;;;2.87;100.00;97810.47;5044577;28;20494;-75
2023/12/09 06:30:41;;;;;;;36.40;19.93;;;3.50;99.90;;;2.90;100.00;97812.81;5039712;28;20457;-76
2023/12/09 06:33:08;;;;;;;40.00;20.33;;;3.50;99.90;;;2.89;100.00;97819.16;5050476;28;20789;-75
2023/12/09 06:35:36;;;;;;;46.30;20.33;;;3.50;99.90;;;2.88;100.00;97812.16;5039994;28;20482;-78
2023/12/09 06:38:03;;;;;;;39.17;19.43;;;3.50;99.90;;;2.96;100.00;97814.78;5048789;28;20450;-75
2023/12/09 06:40:32;;;;;;;44.20;21.23;;;3.60;99.90;;;2.94;100.00;97802.59;5041749;28;20925;-76
2023/12/09 06:42:59;;;;;;;38.77;19.77;;;3.60;99.90;;;2.84;100.00;97816.16;5044169;28;20538;-75
2023/12/09 06:45:27;;;;;;;42.60;20.90;;;3.50;99.90;;;2.75;100.00;97812.66;5058172;28;20466;-75
2023/12/09 06:47:54;;;;;;;46.73;22.40;;;3.50;99.90;;;2.81;100.00;97806.66;5046646;28;20450;-77
2023/12/09 06:50:22;;;;;;;41.03;21.07;;;3.50;99.90;;;3.04;100.00;97792.56;5042348;28;20454;-76
2023/12/09 06:52:50;;;;;;;38.90;20.00;;;3.60;99.90;;;3.04;100.00;97797.09;5054211;28;20479;-74
2023/12/09 06:55:17;;;;;;;44.60;21.80;;;3.60;99.90;;;2.42;100.00;97727.38;5042778;28;20502;-74
2023/12/09 06:57:46;;;;;;;37.90;19.17;;;3.60;99.90;;;2.80;100.00;97807.63;5036930;28;20562;-74
2023/12/09 07:00:15;;;;;;;39.23;19.63;;;3.60;99.90;;;2.69;100.00;97808.03;5038521;28;20463;-73
2023/12/09 07:02:43;;;;;;;42.17;20.73;;;3.50;99.90;;;2.69;100.00;97802.69;5053378;28;20524;-73
2023/12/09 07:05:13;;;;;;;46.33;20.63;;;3.50;99.90;;;2.16;100.00;97717.75;5043893;28;20455;-76
2023/12/09 07:07:40;;;;;;;36.23;18.80;;;3.50;99.90;;;3.26;100.00;97800.81;5041317;28;20493;-76
2023/12/09 07:10:09;;;;;;;41.83;19.40;;;3.70;99.90;;;3.38;100.00;97783.38;5053920;28;20972;-76
2023/12/09 07:12:37;;;;;;;36.60;20.40;;;4.00;99.90;;;3.23;100.00;97795.81;5043788;28;21300;-75
2023/12/09 07:15:08;;;;;;;36.03;19.80;;;3.90;99.90;;;3.05;100.00;97791.56;5037676;28;20467;-75
2023/12/09 07:17:35;;;;;;;38.20;19.73;;;3.80;99.90;;;3.01;100.00;97789.41;5040851;28;20454;-76
2023/12/09 07:20:05;;;;;;;33.00;19.07;;;3.70;99.90;;;3.08;100.00;97777.84;5038859;28;20459;-75
2023/12/09 07:22:33;;;;;;;39.93;19.27;;;3.80;99.90;;;3.18;100.00;97771.50;5039040;28;20922;-76
2023/12/09 07:25:01;;;;;;;38.07;20.67;;;3.80;99.90;;;3.15;100.00;97791.34;5041529;28;20495;-77
2023/12/09 07:27:29;;;;;;;42.40;19.50;;;3.80;99.90;;;3.08;100.00;97785.06;5043603;28;20465;-76
2023/12/09 07:29:57;;;;;;;41.97;20.53;;;3.80;99.90;;;3.01;100.00;97763.56;5041315;28;20455;-78
2023/12/09 07:32:27;;;;;;;42.73;21.80;;;3.80;99.90;;;3.32;100.00;97792.13;5041673;28;21039;-77
2023/12/09 07:34:56;;;;;;;42.60;21.67;;;4.00;99.90;;;3.14;100.00;97778.19;5043442;28;20466;-76
2023/12/09 07:37:23;;;;;;;43.50;21.13;;;3.90;99.90;;;3.10;100.00;97778.50;5059141;28;20451;-78
2023/12/09 07:39:51;;;;;;;41.17;21.93;;;3.80;99.90;;;3.23;100.00;97774.47;5048970;28;20463;-79
2023/12/09 07:42:18;;;;;;;39.93;24.07;;;3.90;99.90;;;2.81;100.00;97677.72;5046208;28;21269;-76
2023/12/09 07:44:45;;;;;;;45.73;25.27;;;4.00;99.90;;;3.24;100.00;97784.97;5051712;28;20446;-79
2023/12/09 07:47:13;;;;;;;44.90;24.47;;;4.00;99.90;;;3.24;100.00;97781.47;5068696;28;20464;-85
2023/12/09 07:49:42;;;;;;;42.27;25.17;;;3.90;99.90;;;2.88;100.00;97702.72;5059118;28;20533;-74
2023/12/09 07:52:10;;;;;;;42.73;22.47;;;4.00;99.90;;;3.38;100.00;97780.72;5069120;28;20567;-76
2023/12/09 07:54:37;;;;;;;36.67;20.80;;;4.00;99.90;;;3.19;100.00;97773.16;5061259;28;20459;-81
2023/12/09 07:57:05;;;;;;;37.40;23.23;;;3.90;99.90;;;3.42;100.00;97780.41;5049759;28;20454;-81
2023/12/09 07:59:33;;;;;;;48.90;21.80;;;4.00;99.90;;;3.44;100.00;97775.72;5051091;28;20521;-77
2023/12/09 08:02:00;;;;;;;38.97;21.57;;;4.10;99.90;;;3.46;100.00;97771.03;5049290;28;20467;-82
2023/12/09 08:04:28;;;;;;;41.50;21.17;;;4.10;99.90;;;3.60;100.00;97772.94;5050265;28;21185;-77
2023/12/09 08:06:57;;;;;;;41.13;22.30;;;4.20;99.90;;;3.45;100.00;97774.69;5038640;28;20460;-77
2023/12/09 08:09:25;;;;;;;39.20;22.07;;;4.20;99.90;;;3.39;100.00;97763.69;5046940;28;20995;-75
2023/12/09 08:11:52;;;;;;;45.40;21.53;;;4.10;99.90;;;3.48;100.00;97763.66;5043040;28;20558;-75
2023/12/09 08:14:19;;;;;;;42.50;21.30;;;4.20;99.90;;;3.84;100.00;97757.72;5042056;28;20969;-74
2023/12/09 08:16:47;;;;;;;41.73;21.30;;;4.30;99.90;;;3.86;100.00;97765.56;5036589;28;20564;-74
2023/12/09 08:19:14;;;;;;;40.67;19.10;;;4.40;99.40;;;3.88;100.00;97763.56;5058687;28;20518;-77
2023/12/09 08:21:42;;;;;;;50.40;19.03;;;4.50;98.80;;;3.80;100.00;97761.78;5040454;28;20453;-77
2023/12/09 08:24:10;;;;;;;32.07;17.50;;;4.40;98.20;;;3.81;100.00;97768.78;5046832;28;20459;-75
2023/12/09 08:26:39;;;;;;;34.17;19.87;;;4.50;97.80;;;3.99;100.00;97770.31;5048588;28;20487;-79
2023/12/09 08:29:08;;;;;;;35.20;17.77;;;4.50;98.20;;;4.04;100.00;97765.28;5045605;28;20565;-72
2023/12/09 08:31:35;;;;;;;40.00;19.50;;;4.60;97.50;;;4.23;100.00;97754.06;5042022;28;20460;-79
2023/12/09 08:34:04;;;;;;;36.03;18.77;;;4.70;97.30;;;4.35;100.00;97749.09;5046697;28;20638;-79
2023/12/09 08:36:31;;;;;;;27.07;17.60;;;4.90;96.70;;;4.15;99.98;97746.09;5044541;28;20488;-77
2023/12/09 08:38:59;;;;;;;37.10;17.50;;;4.90;95.20;;;4.08;100.00;97758.56;5040436;28;20462;-77
2023/12/09 08:41:28;;;;;;;30.03;18.30;;;4.80;95.20;;;4.38;100.00;97754.09;5038712;28;20481;-73
2023/12/09 08:43:55;;;;;;;35.07;17.90;;;4.80;96.10;;;4.45;99.26;97748.84;5058798;28;20558;-77
2023/12/09 08:46:23;;;;;;;31.07;16.90;;;4.90;95.70;;;4.48;99.63;97753.00;5058545;28;20467;-77
2023/12/09 08:48:50;;;;;;;29.73;16.87;;;5.00;95.50;;;4.52;99.48;97755.13;5044226;28;20515;-76
2023/12/09 08:51:17;;;;;;;31.30;19.13;;;5.00;95.30;;;4.25;99.82;97757.38;5044349;28;20492;-73
2023/12/09 08:53:46;;;;;;;26.20;15.63;;;5.00;94.60;;;4.31;100.00;97749.66;5039431;28;20470;-76
2023/12/09 08:56:13;;;;;;;28.50;17.10;;;5.00;94.70;;;4.07;100.00;97757.72;5037659;28;20483;-77
2023/12/09 08:58:41;;;;;;;31.70;15.50;;;4.90;94.60;;;4.37;100.00;97746.25;5043575;28;20453;-75
2023/12/09 09:01:11;;;;;;;29.53;16.33;;;5.00;96.90;;;4.38;100.00;97734.53;5054058;28;20539;-77
2023/12/09 09:03:38;;;;;;;27.87;17.10;;;5.00;95.60;;;4.58;98.70;97725.97;5058517;28;20456;-70
2023/12/09 09:06:06;;;;;;;23.53;15.30;;;5.20;94.80;;;4.54;98.82;97717.47;5053635;28;20780;-69
2023/12/09 09:08:34;;;;;;;20.80;14.57;;;5.20;94.00;;;4.63;98.48;97721.72;5044669;28;20510;-77
2023/12/09 09:11:03;;;;;;;32.00;16.00;;;5.30;94.10;;;4.57;99.14;97721.63;5047367;28;20459;-69
2023/12/09 09:13:30;;;;;;;22.80;14.50;;;5.30;93.50;;;4.71;97.48;97725.34;5045797;28;20457;-75
2023/12/09 09:15:59;;;;;;;21.40;14.40;;;5.40;93.30;;;4.87;96.95;97727.81;5063685;28;20468;-69
2023/12/09 09:18:27;;;;;;;23.80;15.00;;;5.50;93.10;;;4.81;97.06;97734.75;5042645;28;20876;-74
2023/12/09 09:20:54;;;;;;;25.90;14.53;;;5.40;93.10;;;4.75;97.46;97727.44;5044248;28;20548;-77
2023/12/09 09:23:21;;;;;;;30.93;15.17;;;5.40;92.80;;;4.86;98.79;97730.69;5044091;28;20461;-77
2023/12/09 09:25:49;;;;;;;20.50;15.43;;;5.40;93.80;;;5.02;99.30;97738.50;5042269;28;20883;-76
2023/12/09 09:28:17;;;;;;;19.53;13.80;;;5.50;94.60;;;4.92;97.02;97728.09;5042145;28;20563;-73
2023/12/09 09:30:45;;;;;;;26.30;15.83;;;5.60;92.80;;;4.73;96.85;97729.47;5041626;28;20464;-74
2023/12/09 09:33:14;;;;;;;20.57;14.83;;;5.50;92.10;;;4.91;95.75;97715.72;5052604;28;21268;-73
2023/12/09 09:35:41;;;;;;;21.00;13.70;;;5.50;92.30;;;5.15;95.33;97705.69;5054139;28;21341;-72
2023/12/09 09:38:09;;;;;;;20.70;14.20;;;5.60;92.30;;;4.94;95.53;97699.28;5043062;28;20450;-77
2023/12/09 09:40:36;;;;;;;24.13;14.33;;;5.60;91.90;;;4.68;96.23;97697.91;5052681;28;20790;-74
2023/12/09 09:43:09;;;;;;;24.47;15.40;;;5.50;91.60;;;5.00;96.25;97697.69;5060458;28;20449;-75
2023/12/09 09:45:37;;;;;;;22.00;15.00;;;5.60;92.40;;;5.02;95.28;97684.13;5039887;28;21765;-77
2023/12/09 09:48:05;;;;;;;16.20;12.03;;;5.70;91.70;;;5.02;95.22;97684.94;5052803;28;20455;-75
2023/12/09 09:50:41;;;;;;;18.00;14.40;;;5.70;91.70;;;4.98;96.69;97662.25;5054693;28;22631;-77
2023/12/09 09:53:12;;;;;;;21.83;13.47;;;5.70;92.10;;;4.93;96.25;97656.66;5036595;28;20456;-78
2023/12/09 09:55:42;;;;;;;17.53;12.40;;;5.70;92.00;;;4.87;96.15;97655.53;5040996;28;20465;-76
2023/12/09 09:58:09;;;;;;;17.03;11.60;;;5.60;91.80;;;4.25;96.22;97570.19;5041582;28;20537;-74
2023/12/09 10:00:38;;;;;;;20.20;13.43;;;5.60;91.90;;;4.82;97.21;97648.06;5059555;28;20483;-78
2023/12/09 10:03:06;;;;;;;18.60;12.40;;;5.60;92.60;;;5.07;96.18;97645.03;5039636;28;20464;-77
2023/12/09 10:05:35;;;;;;;18.87;12.80;;;5.70;92.60;;;5.25;94.63;97636.59;5038224;28;20651;-82
2023/12/09 10:08:03;;;;;;;18.37;13.40;;;5.80;91.90;;;5.18;95.17;97637.53;5041757;28;20463;-80
2023/12/09 10:10:33;;;;;;;16.63;11.53;;;5.80;91.50;;;5.14;94.68;97631.72;5037375;28;20467;-77
2023/12/09 10:13:01;;;;;;;20.47;13.13;;;5.90;91.50;;;5.03;94.89;97627.69;5039744;28;20471;-76
2023/12/09 10:15:30;;;;;;;18.93;12.37;;;5.80;91.50;;;5.04;95.47;97624.00;5034366;28;20506;-79
2023/12/09 10:18:03;;;;;;;17.30;12.43;;;5.70;91.80;;;5.21;94.99;97623.75;5052256;28;20523;-78